Terminal Aerodrome Forecast
Issued by NWS

Home | Current Version | Previous Version | Text Only | Print | Product List | Glossary On
Versions: 1 2 3 4 5 6 7 8 9 10 11 12 13 14 15 16 17 18 19 20 21 22 23 24
000
FTUS42 TJSJ 230000 RRA
TAFJMZ
TAF
TJMZ 230000Z 2300/2324 27015KT P6SM VCSH SCT030 BKN040
     FM230200 07006KT P6SM FEW070
     FM231630 29010KT P6SM VCSH SCT030 BKN040
      AMD NOT SKED=

USA.gov is the U.S. government's official web portal to all federal, state and local government web resources and services.